« 定点 富山空港 2012/10/20-22 | トップページ | 小牧航空祭 フライト編1 名古屋飛行場 2012/10/14 sun »

2012/10/23

JAPAN AEROSPACE 2012 BI出陣 名古屋飛行場 2012/10/14 sun

ちょっと日が過ぎてしまいましたが、セントレアで開催されたJAPAN AEROSPACE 2012 へのフライトディスプレイに参加するブルーインパルスを名古屋飛行場で、見守った。

20121014_rjna_000bi

早朝、青空を背景に列線に整列している。

20121014_rjna_001bi465728

#1 46-5728 T-4 11SQ

20121014_rjna_002bi465726

#2 46-5726 T-4 11SQ

20121014_rjna_003bi465729

#3 46-5729 T-4 11SQ

20121014_rjna_004bi465730

#4 46-5730 T-4 11SQ

20121014_rjna_005bi665745

#5 66-5745 T-4 11SQ

20121014_rjna_006bi465725

#6 46-5725 T-4 11SQ

20121014_rjna_007bi265805

予 26-5805 T-4 11SQ

20121014_rjna_008bi

20121014_rjna_009bi

12時前に整備員が列線に

METAR RJNA 140300Z VRB02KT 9999 FEW030 BKN150 BKN180 23/11 Q1016 RMK 1CU030 5AC150 6AC180 A3001

20121014_rjna_010bi

パイロットもそろって・・

20121014_rjna_011bi

音楽とナレーションはありませんが、普段と同じようにウォークダウンが行われた。

20121014_rjna_012bi

エンジンスタート

20121014_rjna_013bi465728

12:16タクシーアウト

20121014_rjna_014bi465728

20121014_rjna_015bi

20121014_rjna_016bi465728

20121014_rjna_017bi

20121014_rjna_018bi465726

20121014_rjna_019bi465725

20121014_rjna_020bi265805

特に支障なく出発、予備機が帰りを待ちます。

20121014_rjna_021bi465728

#1

20121014_rjna_022bi465726_2

#2

20121014_rjna_023bi465729

#3

20121014_rjna_024bi465730

#4

20121014_rjna_025bi665745

#5

20121014_rjna_026bi465725

#6

12:25全機離陸。レフトターンデパーチャーでセントレアに向かいます。

METAR RJGG 140330Z 29003KT 250V320 9999 FEW030 SCT120 BKN150 21/12 Q1016 NOSIG RMK 1CU030 3AC120 7AC150 A3002

20121014_rjna_027bi

12:55セントレアからイニシャル経由で名古屋に戻ってきた。

20121014_rjna_028bi

20121014_rjna_029bi

最進入してブレイク

20121014_rjna_030bi465728

20121014_rjna_031bi465729

20121014_rjna_032bi465730

20121014_rjna_033bi

列線では整備員が配置について、到着を待ちます。

20121014_rjna_034bi

20121014_rjna_035bi

20121014_rjna_036bi

20121014_rjna_037bi

20121014_rjna_038bi

20121014_rjna_039bi

13:11ミッション終了

20121014_rjna_040bi

航空祭展示機の帰投が始まりましたが、ブルーインパルスは居残りで翌日帰投です。

|

« 定点 富山空港 2012/10/20-22 | トップページ | 小牧航空祭 フライト編1 名古屋飛行場 2012/10/14 sun »

BI」カテゴリの記事

名古屋飛行場」カテゴリの記事

コメント

コメントを書く



(ウェブ上には掲載しません)


コメントは記事投稿者が公開するまで表示されません。



トラックバック


この記事へのトラックバック一覧です: JAPAN AEROSPACE 2012 BI出陣 名古屋飛行場 2012/10/14 sun:

« 定点 富山空港 2012/10/20-22 | トップページ | 小牧航空祭 フライト編1 名古屋飛行場 2012/10/14 sun »